sensor_id;sensor_type;location;lat;lon;timestamp;temperature;humidity
1594;DHT22;790;47.000;16.084;2023-10-19T00:03:05;9.10;99.90
1594;DHT22;790;47.000;16.084;2023-10-19T00:09:29;9.00;99.90
1594;DHT22;790;47.000;16.084;2023-10-19T00:20:54;8.90;99.90
1594;DHT22;790;47.000;16.084;2023-10-19T00:27:20;8.90;99.90
1594;DHT22;790;47.000;16.084;2023-10-19T00:33:43;9.00;99.90
1594;DHT22;790;47.000;16.084;2023-10-19T00:40:11;9.10;99.90
1594;DHT22;790;47.000;16.084;2023-10-19T00:46:49;9.20;99.90
1594;DHT22;790;47.000;16.084;2023-10-19T00:53:21;9.30;99.90
1594;DHT22;790;47.000;16.084;2023-10-19T00:59:46;9.30;99.90
1594;DHT22;790;47.000;16.084;2023-10-19T01:06:11;9.20;99.90
1594;DHT22;790;47.000;16.084;2023-10-19T01:12:34;9.30;99.90
1594;DHT22;790;47.000;16.084;2023-10-19T01:23:55;9.10;99.90
1594;DHT22;790;47.000;16.084;2023-10-19T01:30:18;9.20;99.90
1594;DHT22;790;47.000;16.084;2023-10-19T01:36:41;9.30;99.90
1594;DHT22;790;47.000;16.084;2023-10-19T01:43:07;9.20;99.90
1594;DHT22;790;47.000;16.084;2023-10-19T01:49:29;9.30;99.90
1594;DHT22;790;47.000;16.084;2023-10-19T01:55:52;9.20;99.90
1594;DHT22;790;47.000;16.084;2023-10-19T02:02:30;9.20;99.90
1594;DHT22;790;47.000;16.084;2023-10-19T02:08:55;9.20;99.90
1594;DHT22;790;47.000;16.084;2023-10-19T02:15:20;9.20;99.90
1594;DHT22;790;47.000;16.084;2023-10-19T02:26:19;9.10;99.90
1594;DHT22;790;47.000;16.084;2023-10-19T02:32:43;9.00;99.90
1594;DHT22;790;47.000;16.084;2023-10-19T02:39:09;9.10;99.90
1594;DHT22;790;47.000;16.084;2023-10-19T02:45:34;8.90;99.90
1594;DHT22;790;47.000;16.084;2023-10-19T02:51:56;8.70;99.90
1594;DHT22;790;47.000;16.084;2023-10-19T02:58:24;8.70;99.90
1594;DHT22;790;47.000;16.084;2023-10-19T03:05:00;8.70;99.90
1594;DHT22;790;47.000;16.084;2023-10-19T03:11:30;8.60;99.90
1594;DHT22;790;47.000;16.084;2023-10-19T03:17:53;8.70;99.90
1594;DHT22;790;47.000;16.084;2023-10-19T03:29:11;8.50;99.90
1594;DHT22;790;47.000;16.084;2023-10-19T03:35:37;8.70;99.90
1594;DHT22;790;47.000;16.084;2023-10-19T03:42:02;8.70;99.90
1594;DHT22;790;47.000;16.084;2023-10-19T03:48:28;8.80;99.90
1594;DHT22;790;47.000;16.084;2023-10-19T03:54:56;8.70;99.90
1594;DHT22;790;47.000;16.084;2023-10-19T04:01:19;8.80;99.90
1594;DHT22;790;47.000;16.084;2023-10-19T04:07:44;8.80;99.90
1594;DHT22;790;47.000;16.084;2023-10-19T04:14:07;8.70;99.90
1594;DHT22;790;47.000;16.084;2023-10-19T04:20:30;8.70;99.90
1594;DHT22;790;47.000;16.084;2023-10-19T04:31:58;8.60;99.90
1594;DHT22;790;47.000;16.084;2023-10-19T04:38:20;8.40;99.90
1594;DHT22;790;47.000;16.084;2023-10-19T04:44:42;8.40;99.90
1594;DHT22;790;47.000;16.084;2023-10-19T04:51:06;8.40;99.90
1594;DHT22;790;47.000;16.084;2023-10-19T04:57:30;8.40;99.90
1594;DHT22;790;47.000;16.084;2023-10-19T05:03:52;8.40;99.90
1594;DHT22;790;47.000;16.084;2023-10-19T05:10:16;8.10;99.90
1594;DHT22;790;47.000;16.084;2023-10-19T05:16:39;8.10;99.90
1594;DHT22;790;47.000;16.084;2023-10-19T05:23:03;7.90;99.90
1594;DHT22;790;47.000;16.084;2023-10-19T05:34:20;7.80;99.90
1594;DHT22;790;47.000;16.084;2023-10-19T05:40:43;7.80;99.90
1594;DHT22;790;47.000;16.084;2023-10-19T05:47:05;7.90;99.90
1594;DHT22;790;47.000;16.084;2023-10-19T05:53:29;8.00;99.90
1594;DHT22;790;47.000;16.084;2023-10-19T05:59:51;8.10;99.90
1594;DHT22;790;47.000;16.084;2023-10-19T06:06:13;8.10;99.90
1594;DHT22;790;47.000;16.084;2023-10-19T06:12:37;8.20;99.90
1594;DHT22;790;47.000;16.084;2023-10-19T06:18:59;8.30;99.90
1594;DHT22;790;47.000;16.084;2023-10-19T06:25:24;8.40;99.90
1594;DHT22;790;47.000;16.084;2023-10-19T06:36:33;8.70;99.90
1594;DHT22;790;47.000;16.084;2023-10-19T06:42:56;8.80;99.90
1594;DHT22;790;47.000;16.084;2023-10-19T06:49:19;8.90;99.90
1594;DHT22;790;47.000;16.084;2023-10-19T06:55:42;9.10;99.90
1594;DHT22;790;47.000;16.084;2023-10-19T07:06:01;9.30;99.90
1594;DHT22;790;47.000;16.084;2023-10-19T07:12:55;9.40;99.90
1594;DHT22;790;47.000;16.084;2023-10-19T07:19:18;9.60;99.90
1594;DHT22;790;47.000;16.084;2023-10-19T07:25:42;9.80;99.90
1594;DHT22;790;47.000;16.084;2023-10-19T07:36:20;10.10;99.90
1594;DHT22;790;47.000;16.084;2023-10-19T07:42:44;10.30;99.90
1594;DHT22;790;47.000;16.084;2023-10-19T07:49:07;10.40;99.90
1594;DHT22;790;47.000;16.084;2023-10-19T07:55:30;10.60;99.90
1594;DHT22;790;47.000;16.084;2023-10-19T08:01:54;10.70;99.90
1594;DHT22;790;47.000;16.084;2023-10-19T08:08:16;10.90;99.90
1594;DHT22;790;47.000;16.084;2023-10-19T08:14:40;11.10;99.90
1594;DHT22;790;47.000;16.084;2023-10-19T08:21:04;11.30;99.90
1594;DHT22;790;47.000;16.084;2023-10-19T08:27:26;11.60;99.90
1594;DHT22;790;47.000;16.084;2023-10-19T08:38:26;12.40;99.90
1594;DHT22;790;47.000;16.084;2023-10-19T08:44:49;12.80;99.90
1594;DHT22;790;47.000;16.084;2023-10-19T08:51:12;13.30;99.90
1594;DHT22;790;47.000;16.084;2023-10-19T08:57:36;13.80;99.90
1594;DHT22;790;47.000;16.084;2023-10-19T09:03:59;14.20;99.90
1594;DHT22;790;47.000;16.084;2023-10-19T09:10:22;14.50;99.90
1594;DHT22;790;47.000;16.084;2023-10-19T09:16:56;14.80;99.90
1594;DHT22;790;47.000;16.084;2023-10-19T09:23:20;15.30;99.90
1594;DHT22;790;47.000;16.084;2023-10-19T09:29:44;15.60;99.90
1594;DHT22;790;47.000;16.084;2023-10-19T09:40:54;16.20;99.90
1594;DHT22;790;47.000;16.084;2023-10-19T09:47:25;16.80;99.90
1594;DHT22;790;47.000;16.084;2023-10-19T09:53:51;17.10;99.90
1594;DHT22;790;47.000;16.084;2023-10-19T10:00:16;17.40;99.90
1594;DHT22;790;47.000;16.084;2023-10-19T10:06:59;17.60;99.90
1594;DHT22;790;47.000;16.084;2023-10-19T10:13:36;17.70;99.90
1594;DHT22;790;47.000;16.084;2023-10-19T10:27:01;18.20;99.90
1594;DHT22;790;47.000;16.084;2023-10-19T10:33:40;18.30;99.90
1594;DHT22;790;47.000;16.084;2023-10-19T10:40:22;18.40;99.90
1594;DHT22;790;47.000;16.084;2023-10-19T10:46:47;18.40;99.90
1594;DHT22;790;47.000;16.084;2023-10-19T10:53:10;18.50;99.90
1594;DHT22;790;47.000;16.084;2023-10-19T10:59:33;18.80;99.90
1594;DHT22;790;47.000;16.084;2023-10-19T11:06:03;19.20;99.90
1594;DHT22;790;47.000;16.084;2023-10-19T11:12:28;19.30;99.90
1594;DHT22;790;47.000;16.084;2023-10-19T11:18:51;19.50;99.90
1594;DHT22;790;47.000;16.084;2023-10-19T11:25:22;19.60;99.90
1594;DHT22;790;47.000;16.084;2023-10-19T11:31:57;19.60;99.90
1594;DHT22;790;47.000;16.084;2023-10-19T11:43:05;19.30;99.90
1594;DHT22;790;47.000;16.084;2023-10-19T11:49:30;19.20;99.90
1594;DHT22;790;47.000;16.084;2023-10-19T11:55:54;19.20;99.90
1594;DHT22;790;47.000;16.084;2023-10-19T12:02:17;19.20;99.90
1594;DHT22;790;47.000;16.084;2023-10-19T12:08:40;19.20;99.90
1594;DHT22;790;47.000;16.084;2023-10-19T12:15:02;19.40;99.90
1594;DHT22;790;47.000;16.084;2023-10-19T12:21:27;19.50;99.90
1594;DHT22;790;47.000;16.084;2023-10-19T12:27:51;19.70;99.90
1594;DHT22;790;47.000;16.084;2023-10-19T12:34:14;19.60;99.90
1594;DHT22;790;47.000;16.084;2023-10-19T12:45:13;19.70;99.90
1594;DHT22;790;47.000;16.084;2023-10-19T12:51:39;19.80;99.90
1594;DHT22;790;47.000;16.084;2023-10-19T12:58:04;19.90;99.90
1594;DHT22;790;47.000;16.084;2023-10-19T13:04:33;19.90;99.90
1594;DHT22;790;47.000;16.084;2023-10-19T13:10:57;19.80;99.90
1594;DHT22;790;47.000;16.084;2023-10-19T13:17:20;19.70;99.90
1594;DHT22;790;47.000;16.084;2023-10-19T13:23:43;19.50;99.90
1594;DHT22;790;47.000;16.084;2023-10-19T13:30:07;19.40;99.90
1594;DHT22;790;47.000;16.084;2023-10-19T13:36:32;19.20;99.90
1594;DHT22;790;47.000;16.084;2023-10-19T13:47:40;19.00;99.90
1594;DHT22;790;47.000;16.084;2023-10-19T13:54:03;19.00;99.90
1594;DHT22;790;47.000;16.084;2023-10-19T14:00:26;18.90;99.90
1594;DHT22;790;47.000;16.084;2023-10-19T14:06:57;18.90;99.90
1594;DHT22;790;47.000;16.084;2023-10-19T14:13:20;18.80;99.90
1594;DHT22;790;47.000;16.084;2023-10-19T14:19:42;18.90;99.90
1594;DHT22;790;47.000;16.084;2023-10-19T14:26:08;18.90;99.90
1594;DHT22;790;47.000;16.084;2023-10-19T14:32:31;18.90;99.90
1594;DHT22;790;47.000;16.084;2023-10-19T14:38:54;18.80;99.90
1594;DHT22;790;47.000;16.084;2023-10-19T14:50:12;18.90;99.90
1594;DHT22;790;47.000;16.084;2023-10-19T14:56:35;19.00;99.90
1594;DHT22;790;47.000;16.084;2023-10-19T15:02:58;19.00;99.90
1594;DHT22;790;47.000;16.084;2023-10-19T15:09:23;19.00;99.90
1594;DHT22;790;47.000;16.084;2023-10-19T15:15:48;19.00;99.90
1594;DHT22;790;47.000;16.084;2023-10-19T15:22:10;18.90;99.90
1594;DHT22;790;47.000;16.084;2023-10-19T15:28:35;18.90;99.90
1594;DHT22;790;47.000;16.084;2023-10-19T15:34:58;18.80;99.90
1594;DHT22;790;47.000;16.084;2023-10-19T15:41:22;18.70;99.90
1594;DHT22;790;47.000;16.084;2023-10-19T15:52:39;18.40;99.90
1594;DHT22;790;47.000;16.084;2023-10-19T15:59:05;18.40;99.90
1594;DHT22;790;47.000;16.084;2023-10-19T16:05:28;18.30;99.90
1594;DHT22;790;47.000;16.084;2023-10-19T16:11:51;18.10;99.90
1594;DHT22;790;47.000;16.084;2023-10-19T16:18:14;17.90;99.90
1594;DHT22;790;47.000;16.084;2023-10-19T16:24:36;17.90;99.90
1594;DHT22;790;47.000;16.084;2023-10-19T16:31:03;17.90;99.90
1594;DHT22;790;47.000;16.084;2023-10-19T16:37:26;17.70;99.90
1594;DHT22;790;47.000;16.084;2023-10-19T16:43:49;17.70;99.90
1594;DHT22;790;47.000;16.084;2023-10-19T16:55:07;17.70;99.90
1594;DHT22;790;47.000;16.084;2023-10-19T17:01:30;17.60;99.90
1594;DHT22;790;47.000;16.084;2023-10-19T17:07:52;17.60;99.90
1594;DHT22;790;47.000;16.084;2023-10-19T17:14:15;17.60;99.90
1594;DHT22;790;47.000;16.084;2023-10-19T17:20:38;17.50;99.90
1594;DHT22;790;47.000;16.084;2023-10-19T17:27:02;17.50;99.90
1594;DHT22;790;47.000;16.084;2023-10-19T17:33:29;17.50;99.90
1594;DHT22;790;47.000;16.084;2023-10-19T17:39:52;17.40;99.90
1594;DHT22;790;47.000;16.084;2023-10-19T17:46:15;17.40;99.90
1594;DHT22;790;47.000;16.084;2023-10-19T17:57:34;17.30;99.90
1594;DHT22;790;47.000;16.084;2023-10-19T18:03:57;17.30;99.90
1594;DHT22;790;47.000;16.084;2023-10-19T18:10:19;17.40;99.90
1594;DHT22;790;47.000;16.084;2023-10-19T18:16:51;17.40;99.90
1594;DHT22;790;47.000;16.084;2023-10-19T18:23:14;17.30;99.90
1594;DHT22;790;47.000;16.084;2023-10-19T18:29:36;17.20;99.90
1594;DHT22;790;47.000;16.084;2023-10-19T18:36:01;17.30;99.90
1594;DHT22;790;47.000;16.084;2023-10-19T18:42:25;17.40;99.90
1594;DHT22;790;47.000;16.084;2023-10-19T18:48:48;17.30;99.90
1594;DHT22;790;47.000;16.084;2023-10-19T19:00:07;17.40;99.90
1594;DHT22;790;47.000;16.084;2023-10-19T19:06:29;17.40;99.90
1594;DHT22;790;47.000;16.084;2023-10-19T19:12:53;17.50;99.90
1594;DHT22;790;47.000;16.084;2023-10-19T19:19:17;17.60;99.90
1594;DHT22;790;47.000;16.084;2023-10-19T19:25:39;17.60;99.90
1594;DHT22;790;47.000;16.084;2023-10-19T19:32:03;17.70;99.90
1594;DHT22;790;47.000;16.084;2023-10-19T19:38:28;17.80;99.90
1594;DHT22;790;47.000;16.084;2023-10-19T19:44:51;17.90;99.90
1594;DHT22;790;47.000;16.084;2023-10-19T19:51:13;17.80;99.90
1594;DHT22;790;47.000;16.084;2023-10-19T20:02:31;17.90;99.90
1594;DHT22;790;47.000;16.084;2023-10-19T20:09:03;17.90;99.90
1594;DHT22;790;47.000;16.084;2023-10-19T20:15:31;17.90;99.90
1594;DHT22;790;47.000;16.084;2023-10-19T20:21:56;17.90;99.90
1594;DHT22;790;47.000;16.084;2023-10-19T20:28:18;17.90;99.90
1594;DHT22;790;47.000;16.084;2023-10-19T20:34:40;17.70;99.90
1594;DHT22;790;47.000;16.084;2023-10-19T20:41:04;17.70;99.90
1594;DHT22;790;47.000;16.084;2023-10-19T20:47:29;17.70;99.90
1594;DHT22;790;47.000;16.084;2023-10-19T20:54:11;17.60;99.90
1594;DHT22;790;47.000;16.084;2023-10-19T21:05:09;17.50;99.90
1594;DHT22;790;47.000;16.084;2023-10-19T21:11:33;17.40;99.90
1594;DHT22;790;47.000;16.084;2023-10-19T21:17:55;17.30;99.90
1594;DHT22;790;47.000;16.084;2023-10-19T21:24:18;17.20;99.90
1594;DHT22;790;47.000;16.084;2023-10-19T21:30:41;17.20;99.90
1594;DHT22;790;47.000;16.084;2023-10-19T21:37:06;17.30;99.90
1594;DHT22;790;47.000;16.084;2023-10-19T21:43:29;17.40;99.90
1594;DHT22;790;47.000;16.084;2023-10-19T21:49:52;17.40;99.90
1594;DHT22;790;47.000;16.084;2023-10-19T21:56:14;17.40;99.90
1594;DHT22;790;47.000;16.084;2023-10-19T22:07:23;17.40;99.90
1594;DHT22;790;47.000;16.084;2023-10-19T22:13:45;17.50;99.90
1594;DHT22;790;47.000;16.084;2023-10-19T22:20:09;17.70;99.90
1594;DHT22;790;47.000;16.084;2023-10-19T22:26:34;17.90;99.90
1594;DHT22;790;47.000;16.084;2023-10-19T22:33:17;18.00;99.90
1594;DHT22;790;47.000;16.084;2023-10-19T22:39:40;18.10;99.90
1594;DHT22;790;47.000;16.084;2023-10-19T22:46:07;18.30;99.90
1594;DHT22;790;47.000;16.084;2023-10-19T22:52:39;18.20;99.90
1594;DHT22;790;47.000;16.084;2023-10-19T22:59:02;18.20;99.90
1594;DHT22;790;47.000;16.084;2023-10-19T23:10:00;18.20;99.90
1594;DHT22;790;47.000;16.084;2023-10-19T23:16:22;18.10;99.90
1594;DHT22;790;47.000;16.084;2023-10-19T23:22:47;18.00;99.90
1594;DHT22;790;47.000;16.084;2023-10-19T23:29:12;18.10;99.90
1594;DHT22;790;47.000;16.084;2023-10-19T23:35:38;18.10;99.90
1594;DHT22;790;47.000;16.084;2023-10-19T23:42:01;18.00;99.90
1594;DHT22;790;47.000;16.084;2023-10-19T23:48:25;17.90;99.90
1594;DHT22;790;47.000;16.084;2023-10-19T23:54:47;18.00;99.90
